createdAt,value
2023-04-18T00:01:19.358Z,7.11
2023-04-18T00:03:47.496Z,7.12
2023-04-18T00:06:14.184Z,7.10
2023-04-18T00:08:40.756Z,7.09
2023-04-18T00:11:07.353Z,7.06
2023-04-18T00:13:33.837Z,7.01
2023-04-18T00:16:00.404Z,7.02
2023-04-18T00:18:27.898Z,6.99
2023-04-18T00:20:54.630Z,6.97
2023-04-18T00:23:22.227Z,6.97
2023-04-18T00:25:48.908Z,6.96
2023-04-18T00:28:15.657Z,6.93
2023-04-18T00:30:42.348Z,6.93
2023-04-18T00:33:08.959Z,6.86
2023-04-18T00:35:38.090Z,6.89
2023-04-18T00:38:04.610Z,6.84
2023-04-18T00:40:31.169Z,6.87
2023-04-18T00:42:57.745Z,6.87
2023-04-18T00:45:24.314Z,6.85
2023-04-18T00:47:50.921Z,6.86
2023-04-18T00:50:18.018Z,6.82
2023-04-18T00:52:44.792Z,6.81
2023-04-18T00:55:11.617Z,6.84
2023-04-18T00:57:38.307Z,6.82
2023-04-18T01:00:10.347Z,6.82
2023-04-18T01:02:38.052Z,6.81
2023-04-18T01:05:04.893Z,6.83
2023-04-18T01:07:33.462Z,6.82
2023-04-18T01:10:00.590Z,6.82
2023-04-18T01:12:27.171Z,6.82
2023-04-18T01:14:53.663Z,6.84
2023-04-18T01:17:20.518Z,6.83
2023-04-18T01:19:47.039Z,6.83
2023-04-18T01:22:14.565Z,6.83
2023-04-18T01:24:42.133Z,6.84
2023-04-18T01:27:11.793Z,6.83
2023-04-18T01:29:39.057Z,6.80
2023-04-18T01:32:06.161Z,6.79
2023-04-18T01:34:32.791Z,6.76
2023-04-18T01:36:59.429Z,6.73
2023-04-18T01:39:25.985Z,6.70
2023-04-18T01:41:52.565Z,6.66
2023-04-18T01:44:19.201Z,6.65
2023-04-18T01:46:46.215Z,6.62
2023-04-18T01:49:12.884Z,6.61
2023-04-18T01:51:39.507Z,6.60
2023-04-18T01:54:06.181Z,6.61
2023-04-18T01:56:32.703Z,6.57
2023-04-18T01:58:59.255Z,6.54
2023-04-18T02:01:25.893Z,6.53
2023-04-18T02:03:52.639Z,6.53
2023-04-18T02:06:19.402Z,6.50
2023-04-18T02:08:45.933Z,6.45
2023-04-18T02:11:12.520Z,6.41
2023-04-18T02:13:39.044Z,6.38
2023-04-18T02:16:06.106Z,6.36
2023-04-18T02:18:34.544Z,6.35
2023-04-18T02:21:01.198Z,6.31
2023-04-18T02:23:27.700Z,6.29
2023-04-18T02:25:54.690Z,6.23
2023-04-18T02:28:21.200Z,6.19
2023-04-18T02:30:47.675Z,6.17
2023-04-18T02:33:14.189Z,6.13
2023-04-18T02:35:40.772Z,6.09
2023-04-18T02:38:07.622Z,6.06
2023-04-18T02:40:34.093Z,5.98
2023-04-18T02:43:02.083Z,5.96
2023-04-18T02:45:28.637Z,5.90
2023-04-18T02:47:56.648Z,5.87
2023-04-18T02:50:24.280Z,5.84
2023-04-18T02:52:51.005Z,5.78
2023-04-18T02:55:17.584Z,5.72
2023-04-18T02:57:44.183Z,5.69
2023-04-18T03:00:11.407Z,5.67
2023-04-18T03:02:37.965Z,5.61
2023-04-18T03:05:05.605Z,5.56
2023-04-18T03:07:32.221Z,5.53
2023-04-18T03:09:59.985Z,5.53
2023-04-18T03:12:26.547Z,5.48
2023-04-18T03:14:53.082Z,5.47
2023-04-18T03:17:19.713Z,5.46
2023-04-18T03:19:46.598Z,5.43
2023-04-18T03:22:14.110Z,5.39
2023-04-18T03:24:40.878Z,5.35
2023-04-18T03:27:07.474Z,5.32
2023-04-18T03:29:34.176Z,5.28
2023-04-18T03:32:00.878Z,5.24
2023-04-18T03:34:27.642Z,5.26
2023-04-18T03:36:54.224Z,5.25
2023-04-18T03:39:20.944Z,5.23
2023-04-18T03:41:47.621Z,5.23
2023-04-18T03:44:14.472Z,5.18
2023-04-18T03:46:41.434Z,5.17
2023-04-18T03:49:08.122Z,5.14
2023-04-18T03:51:42.616Z,5.12
2023-04-18T03:54:09.209Z,5.12
2023-04-18T03:56:36.128Z,5.14
2023-04-18T03:59:02.619Z,5.12
2023-04-18T04:01:29.174Z,5.12
2023-04-18T04:03:55.748Z,5.11
2023-04-18T04:06:22.572Z,5.11
2023-04-18T04:08:49.250Z,5.16
2023-04-18T04:11:16.013Z,5.17
2023-04-18T04:13:42.847Z,5.24
2023-04-18T04:16:09.424Z,5.27
2023-04-18T04:18:35.927Z,5.32
2023-04-18T04:21:03.452Z,5.37
2023-04-18T04:23:29.936Z,5.40
2023-04-18T04:25:56.692Z,5.43
2023-04-18T04:28:23.324Z,5.42
2023-04-18T04:30:50.922Z,5.42
2023-04-18T04:33:19.483Z,5.40
2023-04-18T04:35:47.131Z,5.39
2023-04-18T04:38:17.001Z,5.39
2023-04-18T04:40:43.498Z,5.37
2023-04-18T04:43:15.320Z,5.37
2023-04-18T04:45:42.818Z,5.39
2023-04-18T04:48:09.756Z,5.47
2023-04-18T04:50:38.367Z,5.53
2023-04-18T04:53:06.346Z,5.55
2023-04-18T04:55:33.404Z,5.52
2023-04-18T04:58:00.156Z,5.50
2023-04-18T05:00:26.740Z,5.43
2023-04-18T05:02:55.734Z,5.41
2023-04-18T05:05:22.403Z,5.37
2023-04-18T05:07:48.891Z,5.36
2023-04-18T05:10:15.527Z,5.39
2023-04-18T05:12:42.125Z,5.38
2023-04-18T05:15:08.973Z,5.39
2023-04-18T05:17:35.596Z,5.41
2023-04-18T05:20:02.256Z,5.38
2023-04-18T05:22:28.936Z,5.35
2023-04-18T05:24:55.467Z,5.37
2023-04-18T05:27:22.028Z,5.39
2023-04-18T05:29:50.253Z,5.37
2023-04-18T05:32:16.931Z,5.41
2023-04-18T05:34:43.447Z,5.49
2023-04-18T05:37:10.090Z,5.57
2023-04-18T05:39:36.687Z,5.67
2023-04-18T05:42:03.395Z,5.74
2023-04-18T05:44:30.500Z,5.81
2023-04-18T05:46:57.103Z,5.86
2023-04-18T05:49:23.781Z,5.89
2023-04-18T05:51:50.626Z,5.93
2023-04-18T05:54:17.272Z,5.97
2023-04-18T05:56:43.880Z,5.97
2023-04-18T05:59:10.796Z,6.01
2023-04-18T06:01:38.162Z,6.09
2023-04-18T06:04:05.066Z,6.17
2023-04-18T06:06:31.996Z,6.13
2023-04-18T06:08:58.516Z,6.14
2023-04-18T06:11:25.060Z,6.13
2023-04-18T06:13:51.606Z,6.24
2023-04-18T06:16:18.272Z,6.24
2023-04-18T06:18:44.862Z,6.27
2023-04-18T06:21:11.389Z,6.31
2023-04-18T06:23:38.630Z,6.36
2023-04-18T06:26:06.173Z,6.48
2023-04-18T06:28:32.843Z,6.56
2023-04-18T06:30:59.496Z,6.60
2023-04-18T06:33:26.135Z,6.72
2023-04-18T06:35:52.721Z,6.61
2023-04-18T06:38:19.250Z,6.63
2023-04-18T06:40:45.766Z,6.55
2023-04-18T06:43:12.250Z,6.51
2023-04-18T06:45:38.949Z,6.54
2023-04-18T06:48:06.163Z,6.55
2023-04-18T06:50:33.135Z,6.56
2023-04-18T06:52:59.703Z,6.48
2023-04-18T06:55:26.485Z,6.48
2023-04-18T06:57:53.053Z,6.61
2023-04-18T07:00:19.773Z,6.71
2023-04-18T07:02:46.625Z,6.68
2023-04-18T07:05:13.352Z,6.78
2023-04-18T07:07:39.901Z,6.92
2023-04-18T07:10:07.546Z,7.04
2023-04-18T07:12:34.148Z,7.11
2023-04-18T07:15:00.728Z,7.20
2023-04-18T07:17:27.304Z,7.35
2023-04-18T07:19:53.843Z,7.37
2023-04-18T07:22:20.522Z,7.40
2023-04-18T07:24:47.252Z,7.54
2023-04-18T07:27:14.837Z,7.74
2023-04-18T07:29:41.325Z,7.97
2023-04-18T07:32:08.531Z,8.18
2023-04-18T07:34:36.243Z,8.32
2023-04-18T07:37:02.846Z,8.35
2023-04-18T07:39:29.452Z,8.32
2023-04-18T07:41:56.014Z,8.46
2023-04-18T07:44:22.553Z,8.59
2023-04-18T07:46:49.403Z,8.81
2023-04-18T07:49:16.159Z,9.03
2023-04-18T07:51:42.917Z,9.24
2023-04-18T07:54:11.181Z,9.27
2023-04-18T07:56:37.724Z,9.30
2023-04-18T07:59:04.280Z,9.29
2023-04-18T08:01:31.010Z,9.26
2023-04-18T08:04:01.625Z,9.24
2023-04-18T08:06:29.109Z,9.07
2023-04-18T08:08:55.705Z,9.03
2023-04-18T08:11:22.255Z,8.78
2023-04-18T08:13:49.062Z,8.53
2023-04-18T08:16:17.543Z,8.41
2023-04-18T08:18:44.382Z,8.34
2023-04-18T08:21:10.999Z,8.28
2023-04-18T08:23:37.504Z,8.22
2023-04-18T08:26:04.327Z,8.19
2023-04-18T08:28:30.851Z,8.29
2023-04-18T08:30:57.373Z,8.31
2023-04-18T08:33:24.552Z,8.36
2023-04-18T08:35:51.600Z,8.45
2023-04-18T08:38:18.964Z,8.68
2023-04-18T08:40:45.846Z,8.76
2023-04-18T08:43:15.061Z,9.05
2023-04-18T08:45:45.733Z,9.23
2023-04-18T08:48:16.296Z,9.49
2023-04-18T08:50:43.343Z,9.63
2023-04-18T08:53:10.056Z,9.66
2023-04-18T08:55:36.879Z,9.57
2023-04-18T08:58:06.940Z,9.54
2023-04-18T09:00:33.498Z,9.53
2023-04-18T09:03:00.179Z,9.39
2023-04-18T09:05:27.522Z,9.36
2023-04-18T09:07:55.142Z,9.38
2023-04-18T09:10:36.529Z,9.18
2023-04-18T09:13:04.392Z,9.38
2023-04-18T09:15:31.329Z,9.75
2023-04-18T09:18:02.714Z,10.16
2023-04-18T09:20:38.054Z,10.66
2023-04-18T09:23:11.131Z,10.68
2023-04-18T09:25:44.946Z,10.54
2023-04-18T09:28:29.002Z,10.82
2023-04-18T09:30:57.254Z,10.90
2023-04-18T09:33:28.572Z,10.71
2023-04-18T09:35:56.448Z,10.55
2023-04-18T09:38:41.818Z,10.39
2023-04-18T09:41:09.705Z,10.42
2023-04-18T09:43:36.228Z,10.47
2023-04-18T09:46:03.992Z,10.55
2023-04-18T09:48:31.052Z,10.55
2023-04-18T09:50:59.608Z,10.43
2023-04-18T09:53:26.878Z,10.35
2023-04-18T09:55:55.551Z,10.54
2023-04-18T09:58:25.904Z,10.54
2023-04-18T10:00:53.391Z,10.75
2023-04-18T10:03:20.847Z,11.02
2023-04-18T10:05:47.649Z,11.17
2023-04-18T10:08:14.346Z,11.06
2023-04-18T10:10:41.399Z,11.49
2023-04-18T10:13:11.619Z,11.78
2023-04-18T10:15:38.487Z,12.06
2023-04-18T10:18:15.073Z,12.17
2023-04-18T10:20:42.071Z,12.10
2023-04-18T10:23:36.815Z,11.92
2023-04-18T10:26:04.897Z,12.07
2023-04-18T10:28:57.152Z,11.87
2023-04-18T10:31:28.524Z,11.67
2023-04-18T10:36:28.583Z,11.37
2023-04-18T10:39:02.919Z,11.45
2023-04-18T10:41:31.190Z,11.57
2023-04-18T10:44:09.736Z,11.96
2023-04-18T10:46:37.028Z,12.14
2023-04-18T10:49:16.934Z,12.39
2023-04-18T10:51:47.847Z,13.24
2023-04-18T10:54:21.804Z,13.95
2023-04-18T10:56:58.732Z,13.89
2023-04-18T10:59:26.812Z,14.29
2023-04-18T11:01:56.083Z,13.88
2023-04-18T11:04:24.071Z,13.65
2023-04-18T11:06:53.281Z,13.20
2023-04-18T11:09:19.825Z,12.86
2023-04-18T11:11:46.356Z,12.69
2023-04-18T11:14:13.187Z,12.44
2023-04-18T11:16:39.990Z,12.28
2023-04-18T11:19:23.816Z,12.03
2023-04-18T11:21:51.464Z,11.99
2023-04-18T11:24:24.426Z,12.11
2023-04-18T11:26:55.795Z,12.66
2023-04-18T11:29:22.953Z,12.74
2023-04-18T11:31:51.775Z,12.91
2023-04-18T11:34:18.343Z,13.07
2023-04-18T11:36:49.505Z,12.38
2023-04-18T11:39:16.091Z,12.57
2023-04-18T11:41:48.234Z,12.13
2023-04-18T11:44:15.596Z,11.86
2023-04-18T11:46:42.315Z,11.95
2023-04-18T11:49:27.199Z,12.06
2023-04-18T11:51:53.917Z,11.66
2023-04-18T11:54:44.011Z,11.76
2023-04-18T11:57:27.660Z,11.92
2023-04-18T11:59:59.129Z,11.88
2023-04-18T12:02:41.305Z,11.92
2023-04-18T12:05:08.725Z,11.90
2023-04-18T12:07:42.720Z,11.94
2023-04-18T12:10:23.432Z,12.11
2023-04-18T12:12:51.236Z,12.06
2023-04-18T12:15:18.308Z,12.19
2023-04-18T12:17:46.032Z,12.15
2023-04-18T12:20:13.638Z,12.38
2023-04-18T12:22:50.761Z,12.81
2023-04-18T12:25:27.266Z,12.41
2023-04-18T12:28:03.619Z,12.23
2023-04-18T12:30:37.391Z,12.14
2023-04-18T12:33:04.752Z,12.17
2023-04-18T12:35:31.982Z,12.03
2023-04-18T12:38:00.419Z,12.10
2023-04-18T12:40:29.585Z,12.31
2023-04-18T12:42:56.185Z,12.32
2023-04-18T12:45:23.620Z,12.49
2023-04-18T12:47:51.813Z,12.58
2023-04-18T12:50:22.510Z,12.59
2023-04-18T12:52:52.370Z,12.42
2023-04-18T12:55:19.062Z,12.31
2023-04-18T12:57:45.747Z,12.57
2023-04-18T13:00:13.698Z,12.98
2023-04-18T13:02:41.903Z,13.37
2023-04-18T13:05:10.585Z,13.21
2023-04-18T13:07:38.046Z,13.16
2023-04-18T13:10:05.108Z,13.06
2023-04-18T13:12:31.687Z,12.46
2023-04-18T13:14:58.517Z,12.57
2023-04-18T13:17:25.492Z,12.72
2023-04-18T13:19:52.158Z,12.61
2023-04-18T13:22:21.707Z,12.55
2023-04-18T13:24:48.422Z,12.51
2023-04-18T13:27:15.380Z,12.43
2023-04-18T13:29:43.062Z,12.15
2023-04-18T13:32:09.739Z,12.16
2023-04-18T13:34:44.719Z,12.07
2023-04-18T13:37:11.474Z,12.43
2023-04-18T13:39:38.135Z,12.51
2023-04-18T13:42:04.785Z,12.44
2023-04-18T13:44:31.560Z,12.22
2023-04-18T13:46:58.146Z,11.97
2023-04-18T13:49:24.680Z,11.89
2023-04-18T13:51:53.428Z,11.87
2023-04-18T13:54:20.186Z,11.95
2023-04-18T13:56:46.716Z,11.97
2023-04-18T13:59:13.474Z,11.99
2023-04-18T14:01:40.250Z,11.93
2023-04-18T14:04:07.058Z,11.79
2023-04-18T14:06:33.748Z,11.99
2023-04-18T14:09:00.321Z,12.01
2023-04-18T14:11:27.046Z,12.40
2023-04-18T14:13:53.608Z,12.64
2023-04-18T14:16:20.323Z,12.88
2023-04-18T14:18:47.258Z,13.05
2023-04-18T14:21:13.852Z,12.79
2023-04-18T14:23:40.442Z,13.44
2023-04-18T14:26:07.008Z,14.32
2023-04-18T14:28:33.670Z,15.07
2023-04-18T14:31:02.087Z,15.74
2023-04-18T14:33:29.198Z,15.96
2023-04-18T14:35:55.723Z,15.62
2023-04-18T14:38:22.294Z,15.58
2023-04-18T14:40:48.773Z,15.17
2023-04-18T14:43:15.977Z,14.89
2023-04-18T14:45:42.584Z,14.20
2023-04-18T14:48:10.363Z,13.72
2023-04-18T14:50:38.565Z,13.64
2023-04-18T14:53:05.905Z,13.95
2023-04-18T14:55:33.780Z,14.70
2023-04-18T14:58:01.243Z,15.02
2023-04-18T15:00:28.212Z,14.83
2023-04-18T15:02:56.890Z,14.06
2023-04-18T15:05:23.815Z,14.71
2023-04-18T15:07:51.912Z,14.68
2023-04-18T15:10:22.539Z,14.83
2023-04-18T15:12:49.175Z,15.23
2023-04-18T15:15:16.147Z,16.18
2023-04-18T15:17:42.723Z,16.78
2023-04-18T15:20:09.572Z,16.47
2023-04-18T15:22:36.166Z,15.55
2023-04-18T15:25:04.310Z,15.08
2023-04-18T15:27:31.012Z,14.98
2023-04-18T15:29:57.544Z,14.82
2023-04-18T15:32:24.739Z,14.66
2023-04-18T15:34:51.509Z,14.81
2023-04-18T15:37:18.090Z,15.15
2023-04-18T15:39:44.638Z,15.62
2023-04-18T15:42:11.178Z,15.48
2023-04-18T15:44:37.745Z,15.33
2023-04-18T15:47:04.418Z,14.95
2023-04-18T15:49:31.186Z,14.46
2023-04-18T15:51:57.718Z,14.47
2023-04-18T15:54:24.262Z,14.28
2023-04-18T15:56:51.108Z,14.16
2023-04-18T15:59:17.764Z,14.09
2023-04-18T16:01:46.108Z,14.08
2023-04-18T16:04:13.192Z,14.68
2023-04-18T16:06:40.493Z,15.31
2023-04-18T16:09:07.058Z,16.30
2023-04-18T16:11:33.626Z,17.39
2023-04-18T16:14:00.171Z,17.92
2023-04-18T16:16:28.433Z,17.98
2023-04-18T16:18:55.005Z,17.33
2023-04-18T16:21:21.709Z,16.36
2023-04-18T16:23:48.726Z,15.55
2023-04-18T16:26:15.294Z,15.43
2023-04-18T16:28:42.087Z,14.90
2023-04-18T16:31:08.687Z,14.91
2023-04-18T16:33:35.346Z,15.16
2023-04-18T16:36:05.170Z,15.13
2023-04-18T16:38:31.848Z,15.78
2023-04-18T16:40:59.628Z,16.27
2023-04-18T16:43:30.332Z,16.50
2023-04-18T16:45:57.616Z,16.27
2023-04-18T16:48:24.601Z,15.62
2023-04-18T16:50:51.262Z,16.03
2023-04-18T16:53:17.801Z,16.39
2023-04-18T16:55:44.353Z,15.95
2023-04-18T16:58:11.252Z,15.74
2023-04-18T17:00:38.656Z,15.74
2023-04-18T17:03:07.296Z,15.70
2023-04-18T17:05:33.995Z,15.30
2023-04-18T17:08:00.709Z,15.25
2023-04-18T17:10:29.417Z,15.24
2023-04-18T17:12:56.581Z,15.21
2023-04-18T17:15:23.126Z,15.00
2023-04-18T17:17:50.679Z,15.15
2023-04-18T17:20:17.959Z,15.15
2023-04-18T17:22:44.717Z,15.07
2023-04-18T17:25:11.278Z,15.15
2023-04-18T17:27:40.161Z,15.23
2023-04-18T17:30:07.315Z,15.02
2023-04-18T17:32:33.859Z,14.72
2023-04-18T17:35:04.515Z,14.91
2023-04-18T17:37:31.239Z,15.19
2023-04-18T17:39:58.807Z,15.18
2023-04-18T17:42:25.456Z,15.06
2023-04-18T17:44:52.002Z,14.83
2023-04-18T17:47:18.579Z,14.51
2023-04-18T17:49:45.987Z,14.25
2023-04-18T17:52:12.581Z,14.03
2023-04-18T17:54:39.199Z,13.66
2023-04-18T17:57:06.291Z,13.19
2023-04-18T17:59:37.541Z,13.02
2023-04-18T18:02:05.236Z,12.88
2023-04-18T18:04:31.955Z,12.77
2023-04-18T18:06:58.995Z,12.70
2023-04-18T18:09:25.662Z,12.63
2023-04-18T18:11:54.636Z,12.57
2023-04-18T18:14:22.807Z,12.42
2023-04-18T18:16:49.400Z,12.39
2023-04-18T18:19:16.621Z,12.23
2023-04-18T18:21:43.368Z,12.21
2023-04-18T18:24:10.906Z,12.15
2023-04-18T18:26:37.461Z,12.07
2023-04-18T18:29:09.160Z,12.06
2023-04-18T18:31:36.156Z,11.99
2023-04-18T18:34:02.995Z,11.92
2023-04-18T18:36:29.731Z,11.85
2023-04-18T18:38:56.250Z,11.82
2023-04-18T18:41:23.318Z,11.77
2023-04-18T18:43:50.894Z,11.75
2023-04-18T18:46:17.643Z,11.68
2023-04-18T18:48:44.386Z,11.67
2023-04-18T18:51:11.560Z,11.62
2023-04-18T18:53:40.311Z,11.56
2023-04-18T18:56:08.682Z,11.52
2023-04-18T18:58:35.996Z,11.45
2023-04-18T19:01:03.327Z,11.40
2023-04-18T19:03:30.362Z,11.39
2023-04-18T19:05:57.036Z,11.37
2023-04-18T19:08:23.533Z,11.31
2023-04-18T19:10:50.687Z,11.30
2023-04-18T19:13:21.129Z,11.27
2023-04-18T19:15:47.745Z,11.23
2023-04-18T19:18:15.106Z,11.16
2023-04-18T19:20:41.854Z,11.11
2023-04-18T19:23:08.665Z,11.09
2023-04-18T19:25:35.406Z,11.08
2023-04-18T19:28:01.981Z,11.06
2023-04-18T19:30:28.734Z,10.98
2023-04-18T19:32:55.489Z,10.96
2023-04-18T19:35:22.126Z,10.91
2023-04-18T19:37:48.659Z,10.88
2023-04-18T19:40:15.180Z,10.81
2023-04-18T19:42:41.937Z,10.78
2023-04-18T19:45:08.982Z,10.77
2023-04-18T19:47:35.550Z,10.69
2023-04-18T19:50:02.128Z,10.63
2023-04-18T19:52:28.720Z,10.61
2023-04-18T19:54:55.626Z,10.54
2023-04-18T19:57:22.115Z,10.52
2023-04-18T19:59:48.711Z,10.46
2023-04-18T20:02:15.509Z,10.41
2023-04-18T20:04:43.930Z,10.34
2023-04-18T20:07:10.988Z,10.27
2023-04-18T20:09:37.511Z,10.23
2023-04-18T20:12:04.092Z,10.16
2023-04-18T20:14:31.919Z,10.12
2023-04-18T20:16:58.693Z,10.05
2023-04-18T20:19:25.592Z,10.00
2023-04-18T20:21:52.605Z,9.96
2023-04-18T20:24:21.074Z,9.91
2023-04-18T20:26:47.953Z,9.85
2023-04-18T20:29:14.753Z,9.79
2023-04-18T20:31:42.454Z,9.74
2023-04-18T20:34:09.952Z,9.72
2023-04-18T20:36:41.392Z,9.69
2023-04-18T20:39:12.716Z,9.64
2023-04-18T20:41:59.854Z,9.61
2023-04-18T20:44:26.539Z,9.57
2023-04-18T20:46:56.044Z,9.55
2023-04-18T20:49:22.802Z,9.50
2023-04-18T20:51:49.295Z,9.46
2023-04-18T20:54:16.267Z,9.41
2023-04-18T20:56:42.860Z,9.37
2023-04-18T20:59:09.349Z,9.34
2023-04-18T21:01:37.177Z,9.30
2023-04-18T21:04:04.147Z,9.27
2023-04-18T21:06:31.112Z,9.24
2023-04-18T21:08:57.643Z,9.20
2023-04-18T21:11:24.181Z,9.16
2023-04-18T21:13:50.674Z,9.14
2023-04-18T21:16:17.509Z,9.14
2023-04-18T21:18:44.264Z,9.13
2023-04-18T21:21:11.726Z,9.11
2023-04-18T21:23:44.475Z,9.07
2023-04-18T21:26:12.671Z,9.03
2023-04-18T21:29:01.676Z,8.99
2023-04-18T21:31:30.459Z,8.97
2023-04-18T21:33:57.963Z,8.96
2023-04-18T21:36:26.974Z,8.95
2023-04-18T21:38:54.472Z,8.91
2023-04-18T21:41:21.259Z,8.86
2023-04-18T21:43:48.050Z,8.82
2023-04-18T21:46:14.921Z,8.79
2023-04-18T21:48:43.176Z,8.78
2023-04-18T21:51:10.938Z,8.74
2023-04-18T21:53:38.571Z,8.71
2023-04-18T21:56:05.982Z,8.73
2023-04-18T21:58:32.889Z,8.72
2023-04-18T22:00:59.801Z,8.72
2023-04-18T22:03:27.652Z,8.74
2023-04-18T22:05:56.837Z,8.76
2023-04-18T22:08:25.836Z,8.79
2023-04-18T22:10:58.144Z,8.82
2023-04-18T22:13:25.966Z,8.85
2023-04-18T22:15:52.472Z,8.92
2023-04-18T22:18:19.249Z,8.94
2023-04-18T22:20:46.873Z,8.99
2023-04-18T22:23:13.818Z,8.99
2023-04-18T22:25:40.927Z,9.00
2023-04-18T22:28:07.839Z,9.07
2023-04-18T22:30:34.457Z,9.08
2023-04-18T22:33:01.363Z,9.05
2023-04-18T22:35:28.204Z,9.07
2023-04-18T22:37:55.800Z,9.05
2023-04-18T22:40:22.302Z,9.05
2023-04-18T22:42:48.873Z,9.00
2023-04-18T22:45:15.517Z,9.01
2023-04-18T22:47:42.298Z,9.00
2023-04-18T22:50:09.089Z,8.97
2023-04-18T22:52:35.680Z,9.02
2023-04-18T22:55:02.947Z,8.97
2023-04-18T22:57:29.827Z,8.94
2023-04-18T22:59:56.469Z,8.89
2023-04-18T23:02:23.294Z,8.87
2023-04-18T23:04:50.624Z,8.86
2023-04-18T23:07:17.256Z,8.82
2023-04-18T23:09:43.737Z,8.79
2023-04-18T23:12:10.413Z,8.77
2023-04-18T23:14:36.951Z,8.74
2023-04-18T23:17:03.888Z,8.73
2023-04-18T23:19:30.525Z,8.72
2023-04-18T23:21:57.145Z,8.70
2023-04-18T23:24:23.695Z,8.70
2023-04-18T23:26:50.257Z,8.68
2023-04-18T23:29:16.820Z,8.70
2023-04-18T23:31:43.499Z,8.69
2023-04-18T23:34:10.700Z,8.67
2023-04-18T23:36:37.388Z,8.65
2023-04-18T23:39:04.264Z,8.64
2023-04-18T23:41:31.136Z,8.59
2023-04-18T23:43:57.655Z,8.55
2023-04-18T23:46:24.257Z,8.49
2023-04-18T23:48:50.884Z,8.44
2023-04-18T23:51:17.415Z,8.40
2023-04-18T23:53:43.955Z,8.38
2023-04-18T23:56:10.527Z,8.35
2023-04-18T23:58:37.033Z,8.33
